Hovedside
METAR-TAF:

METAR-TAF

Lufthavner :

Sogndal lufthamn. Haukåsen

Sogndal, Norge

breddegrad: 61-09N, lengdegrad: 007-08E, høyde over havet: 49 m

Gjeldene værobservasjon

Denne rapporten ble laget for 16 minutter siden, klokken 15:20 UTC
Vind 3 kt fra Nord-nordøst, skiftende mellom Nord og Øst-nordøst
Temperatur 19°C
Luftfuktighet 40%
Trykk 1018 hPa
Sikt 10 km eller mer

METAR: ENSG 241520Z AUTO 03003KT 350V070 9999 FEW074/// 19/05 Q1018 RMK WIND 3806FT VRB04KT

Tid: 17:36 (15:36 UTC)

Varsel

Denne rapporten ble laget for 1 time og 36 minutter siden, klokken 14:00 UTC
Varsel gyldig fra 24. klokken 15 UTC til 24. klokken 21 UTC
Vind 5 kt fra Øst-nordøst
Sikt 10 km eller mer
ingen skyer under 1500 m og ingen bygeskyer

TAF: ENSG 241400Z 2415/2421 07005KT CAVOK

Værobservasjoner og værvarsel for over 4000 flyplasser (METAR- og TAF-rapporter).

Tilgjengelige stasjoner er representert av de røde og gule prikkene på kartet.

Hold musepekeren over prikken for å se navnet på stasjonen.

Klikk så for å se værobservasjoner og -varsler.

For å forandre kartet kan du klikke på den grønne knappen med svart kryss for å zoome inn, på den grønne knappen med strek for å zoome ut, eller på de grønne pilene for å se tilstøtende kart.


METAR-TAF: